Attawapiskat Airport

CYAT · 安大略, 加拿大

罗盘
风向 的 风向 060° Attawapiskat Airport 6/24
风: 8 kt, 3 beaufort

8 kt

2 kt
改变
0 ft 1.000 2.000 3.000 4.000 5.000
没有云
METAR CYAT 182200Z AUTO 06008KT 9SM CLR 14/09 A2976 RMK SLP080

METAR Attawapiskat Airport - CYAT/YAT

Attawapiskat Airport是,加拿大中的中型机场。 该机场位于纬度52,92743和经度-82,43235。 该机场有一条跑道: 6/24. 本场的ICAO机场代码为CYAT。 该机场的IATA代码为YAT。 机场在Winnipeg FIR中。

该航空气象观测是针对Attawapiskat Airport在2024年5月18日 18:00, 当地时间进行的。

机场观察

风向为060°,速度为8 kt。

可见度为9 mi。

有没有云。 没有观察到天花板。

温度和风寒是14 °C。 露点为9 °C,相对湿度为72%。 海平面上的气压为29,76 inHg (QNH)。

白天

今天,太阳从05:25升起,在21:26降落。 这适用于Attawapiskat Airport,世界夏令时可能有所不同。 当地时间与世界标准时间之间的时差为-4 小时。 夏令时目前正在进行中。

公司介绍

我们没有关于这个机场的公司信息。

体会

到Vliegles.nl去找飞行课程,跳伞和其他飞行体验。 浏览页面,了解Attawapiskat Airport附近所有可用的活动。 你也可以使用搜索功能来寻找你所在地附近的特定飞行课程、跳伞或其他飞行体验。

跑道

Id 标题 侧风 逆风 侧风 %
6/24 049°-229° 2 kt 8 kt 19 %

逆风成分最大的方向会被突出显示,并用于横风计算。 这并不一定意味着这个方向在使用。

乌云

- CLR 没有云

温度 & 天气

温度 14 °C
露点 9 °C
相对湿度 72%
Kp-index 0 (0-9)

评论

SLP080海平面压力为29,77 inHg (29,77 inHg)

白天

日出
05:25
中午
13:26
日落
21:26 (2:50)

小工具

你想在你的网站上有一个关于Attawapiskat Airport的当前航空天气(METAR)的小部件吗?

显示HTML代码
报告变更